Terminal Aerodrome Forecast
Issued by NWS

Current Version | Previous Version | Text Only | Print | Product List | Glossary Off
Versions: 1 2 3 4 5 6 7 8 9 10 11 12 13 14 15 16 17 18 19 20 21 22 23 24 25 26 27 28 29 30 31 32 33 34 35 36 37

000
FTUS41 KRNK 212320
TAFLWB
TAF
KLWB 212320Z 2200/2224 29006KT P6SM VCSH SCT015 OVC028
     FM220800 VRB03KT 6SM BR SCT007 BKN012
      TEMPO 2208/2212 2SM BR BKN002
     FM221400 30008KT P6SM SCT035
     FM221800 28010G20KT P6SM SCT040=

USA.gov is the U.S. government's official web portal to all federal, state and local government web resources and services.